Time;durP1;ratioP1;P1;durP2;ratioP2;P2;SDS_P1;SDS_P2;PMS_P1;PMS_P2;Temp;Humidity;BMP_temperature;BMP_pressure;BME280_temperature;BME280_humidity;BME280_pressure;Samples;Min_cycle;Max_cycle;Signal;HPM_P1;HPM_P2
2022/09/24 00:00:53;;;;;;;7.32;4.18;;;;;;;10.54;69.91;100415.50;5067018;28;20028;-27
2022/09/24 00:03:20;;;;;;;7.25;4.40;;;;;;;10.17;71.32;100407.16;5067377;28;20028;-27
2022/09/24 00:05:46;;;;;;;8.27;5.18;;;;;;;10.47;70.51;100422.72;5066910;28;20053;-28
2022/09/24 00:08:13;;;;;;;8.23;4.38;;;;;;;10.61;69.54;100413.66;5067033;28;20110;-25
2022/09/24 00:10:40;;;;;;;8.07;4.72;;;;;;;10.44;70.28;100424.78;5066998;28;20032;-27
2022/09/24 00:13:10;;;;;;;9.57;4.75;;;;;;;9.55;73.26;100410.03;5048839;28;20025;-27
2022/09/24 00:15:37;;;;;;;8.10;4.43;;;;;;;9.39;74.15;100405.13;5066744;28;20107;-29
2022/09/24 00:18:04;;;;;;;7.28;4.07;;;;;;;9.24;75.29;100416.75;5066708;28;20044;-28
2022/09/24 00:20:31;;;;;;;7.65;4.68;;;;;;;9.15;75.14;100407.31;5048534;28;20466;-26
2022/09/24 00:22:58;;;;;;;8.13;4.47;;;;;;;8.69;76.93;100405.31;5066861;28;20020;-28
2022/09/24 00:28:07;;;;;;;6.97;4.38;;;;;;;8.83;76.34;100396.38;5066514;28;20036;-26
2022/09/24 00:30:33;;;;;;;8.45;4.85;;;;;;;9.32;74.60;100417.59;5066863;28;20777;-28
2022/09/24 00:32:58;;;;;;;8.25;4.80;;;;;;;9.35;73.92;100395.91;5048598;28;20102;-28
2022/09/24 00:35:24;;;;;;;8.15;5.15;;;;;;;9.21;74.96;100413.66;5048652;28;20474;-29
2022/09/24 00:37:50;;;;;;;9.73;5.18;;;;;;;8.93;75.60;100416.44;5070014;28;20125;-25
2022/09/24 00:40:16;;;;;;;7.38;4.40;;;;;;;8.81;76.30;100414.38;5070433;28;20086;-27
2022/09/24 00:42:41;;;;;;;8.82;5.03;;;;;;;9.11;74.53;100394.63;5070842;28;20634;-28
2022/09/24 00:45:09;;;;;;;7.63;4.80;;;;;;;9.40;74.11;100401.44;5070938;28;20472;-27
2022/09/24 00:47:40;;;;;;;7.78;4.50;;;;;;;9.64;73.56;100402.66;5070414;28;20034;-27
2022/09/24 00:50:16;;;;;;;7.90;5.25;;;;;;;9.58;74.28;100383.03;5070218;28;20035;-28
2022/09/24 00:52:47;;;;;;;10.63;5.72;;;;;;;9.63;74.09;100391.22;5070387;28;20063;-27
2022/09/24 00:55:14;;;;;;;8.40;5.20;;;;;;;9.65;73.83;100405.13;5070466;28;20047;-27
2022/09/24 00:57:41;;;;;;;7.60;5.10;;;;;;;9.35;73.88;100386.06;5070251;28;20515;-26
2022/09/24 01:00:07;;;;;;;7.43;4.65;;;;;;;9.36;73.52;100408.19;5070251;28;20667;-26
2022/09/24 01:02:36;;;;;;;9.43;5.18;;;;;;;9.16;74.23;100389.53;5070260;28;20039;-26
2022/09/24 01:05:02;;;;;;;10.57;5.85;;;;;;;9.09;74.90;100389.47;5069810;28;20040;-27
2022/09/24 01:07:28;;;;;;;10.40;5.60;;;;;;;9.16;73.91;100395.66;5070191;28;20025;-30
2022/09/24 01:09:53;;;;;;;8.52;5.55;;;;;;;9.20;73.27;100402.22;5069950;28;20511;-27
2022/09/24 01:12:39;;;;;;;12.15;6.35;;;;;;;9.42;72.69;100402.06;5070153;28;20423;-28
2022/09/24 01:15:19;;;;;;;8.05;6.03;;;;;;;9.38;73.54;100408.81;5070080;28;20044;-27
2022/09/24 01:17:47;;;;;;;9.05;6.10;;;;;;;9.45;72.74;100409.63;5069761;28;20032;-28
2022/09/24 01:20:34;;;;;;;8.50;5.65;;;;;;;9.56;72.85;100405.53;5070388;28;20044;-26
2022/09/24 01:23:38;;;;;;;10.23;5.50;;;;;;;9.45;72.71;100404.31;5070083;28;20068;-27
2022/09/24 01:26:06;;;;;;;8.20;5.25;;;;;;;9.31;72.65;100390.16;5006865;28;20033;-27
2022/09/24 01:29:04;;;;;;;9.63;6.07;;;;;;;9.37;73.33;100407.97;5039999;28;20089;-26
2022/09/24 01:31:45;;;;;;;8.60;5.53;;;;;;;9.31;72.54;100386.69;5069946;28;20032;-27
2022/09/24 01:34:15;;;;;;;8.27;5.25;;;;;;;9.14;73.25;100403.03;5069582;28;20886;-27
2022/09/24 01:36:43;;;;;;;10.38;5.60;;;;;;;9.32;72.64;100412.28;5034695;28;20111;-27
2022/09/24 01:39:09;;;;;;;8.45;5.32;;;;;;;9.04;73.37;100387.44;5069710;28;20032;-26
2022/09/24 01:41:37;;;;;;;7.25;4.95;;;;;;;9.06;73.44;100416.50;5069823;28;20040;-29
2022/09/24 01:44:06;;;;;;;7.15;4.85;;;;;;;8.74;74.00;100396.75;5069677;28;20039;-27
2022/09/24 01:46:33;;;;;;;10.13;4.85;;;;;;;8.84;73.69;100403.31;5069220;28;20104;-26
2022/09/24 01:48:59;;;;;;;8.63;5.00;;;;;;;8.80;73.81;100418.03;5069162;28;20020;-26
2022/09/24 01:51:31;;;;;;;6.38;4.50;;;;;;;8.89;72.39;100399.25;5069200;28;20039;-27
2022/09/24 01:54:02;;;;;;;7.95;5.18;;;;;;;8.56;73.49;100378.66;5069446;28;20027;-28
2022/09/24 01:57:01;;;;;;;9.90;5.07;;;;;;;8.58;73.69;100425.31;5069224;28;20119;-27
2022/09/24 02:00:02;;;;;;;8.43;5.05;;;;;;;8.39;74.90;100420.69;5050826;28;20107;-26
2022/09/24 02:02:36;;;;;;;7.70;4.80;;;;;;;8.42;74.73;100415.81;5035202;28;20193;-25
2022/09/24 02:05:11;;;;;;;7.07;4.85;;;;;;;8.65;74.03;100420.03;5068701;28;20040;-27
2022/09/24 02:07:43;;;;;;;7.32;4.57;;;;;;;8.56;73.41;100416.72;5069019;28;20446;-27
2022/09/24 02:10:18;;;;;;;7.40;4.57;;;;;;;8.39;73.96;100405.53;5068977;28;20090;-28
2022/09/24 02:12:48;;;;;;;11.27;4.85;;;;;;;8.41;73.61;100400.06;5068952;28;20028;-28
2022/09/24 02:15:19;;;;;;;7.78;4.43;;;;;;;8.44;74.02;100415.63;5051027;28;20040;-26
2022/09/24 02:17:50;;;;;;;7.80;4.40;;;;;;;8.23;74.88;100417.31;5068972;28;20029;-26
2022/09/24 02:20:20;;;;;;;6.85;4.43;;;;;;;8.19;75.32;100409.91;5068737;28;20036;-29
2022/09/24 02:22:48;;;;;;;8.73;4.47;;;;;;;8.22;75.91;100430.81;5068972;28;20036;-25
2022/09/24 02:25:19;;;;;;;7.25;4.28;;;;;;;7.83;77.61;100443.59;5068594;28;20106;-26
2022/09/24 02:27:45;;;;;;;7.57;4.40;;;;;;;7.87;77.49;100421.94;5068730;28;20420;-26
2022/09/24 02:30:11;;;;;;;7.80;5.07;;;;;;;7.92;77.43;100444.25;5068157;28;20097;-30
2022/09/24 02:32:40;;;;;;;8.18;5.65;;;;;;;7.72;78.58;100449.41;5068418;28;20107;-28
2022/09/24 02:35:09;;;;;;;7.82;5.43;;;;;;;7.83;78.15;100448.09;5050079;28;20564;-26
2022/09/24 02:37:36;;;;;;;7.60;5.18;;;;;;;7.53;79.06;100442.91;5068379;28;20039;-26
2022/09/24 02:40:06;;;;;;;6.40;4.22;;;;;;;7.36;78.63;100430.91;5068068;28;20036;-28
2022/09/24 02:42:31;;;;;;;7.55;4.70;;;;;;;7.71;77.23;100446.94;5068375;28;20496;-26
2022/09/24 02:44:59;;;;;;;8.43;4.68;;;;;;;7.81;77.01;100445.59;5068174;28;20036;-26
2022/09/24 02:47:25;;;;;;;7.97;5.22;;;;;;;7.75;77.49;100450.88;5068097;28;20461;-27
2022/09/24 02:49:50;;;;;;;7.05;4.10;;;;;;;8.02;75.92;100423.50;5068062;28;20048;-25
2022/09/24 02:52:17;;;;;;;8.38;4.60;;;;;;;8.05;75.55;100420.47;5068354;28;20035;-26
2022/09/24 02:54:43;;;;;;;7.18;4.35;;;;;;;8.14;75.08;100433.59;5068536;28;20097;-28
2022/09/24 02:57:09;;;;;;;7.07;4.03;;;;;;;7.94;76.14;100444.88;5068102;28;20035;-28
2022/09/24 02:59:34;;;;;;;8.07;4.50;;;;;;;7.86;75.92;100426.44;5067350;28;20045;-30
2022/09/24 03:02:00;;;;;;;9.45;3.80;;;;;;;7.64;76.89;100450.38;5067524;28;20042;-25
2022/09/24 03:04:25;;;;;;;12.45;4.55;;;;;;;7.23;77.97;100455.44;5067864;28;20167;-25
2022/09/24 03:06:51;;;;;;;7.60;4.35;;;;;;;7.40;77.13;100454.22;5067684;28;20052;-25
2022/09/24 03:09:16;;;;;;;9.80;5.05;;;;;;;7.37;77.84;100459.06;5068014;28;20024;-27
2022/09/24 03:11:42;;;;;;;7.50;4.85;;;;;;;7.35;77.30;100453.13;5067715;28;20041;-26
2022/09/24 03:14:07;;;;;;;9.10;4.53;;;;;;;7.20;76.86;100440.72;5049282;28;20020;-26
2022/09/24 03:16:33;;;;;;;8.43;5.10;;;;;;;7.36;76.46;100441.53;5067581;28;20119;-28
2022/09/24 03:18:58;;;;;;;8.52;5.05;;;;;;;7.51;75.85;100466.16;5067571;28;20756;-27
2022/09/24 03:21:24;;;;;;;7.30;5.00;;;;;;;7.48;75.99;100455.09;5067734;28;20043;-25
2022/09/24 03:23:50;;;;;;;9.02;5.13;;;;;;;7.52;75.47;100441.28;5067286;28;20020;-26
2022/09/24 03:26:16;;;;;;;9.00;5.15;;;;;;;7.48;75.90;100469.19;5067642;28;20036;-30
2022/09/24 03:28:42;;;;;;;15.50;4.75;;;;;;;7.58;76.20;100477.66;5067206;28;20020;-25
2022/09/24 03:31:08;;;;;;;9.63;5.10;;;;;;;7.68;76.25;100481.81;5067443;28;20035;-28
2022/09/24 03:33:40;;;;;;;9.32;5.03;;;;;;;7.59;76.52;100478.47;5067605;28;20024;-30
2022/09/24 03:36:10;;;;;;;7.28;4.60;;;;;;;7.71;76.78;100481.47;5067469;28;20036;-26
2022/09/24 03:38:37;;;;;;;7.75;4.60;;;;;;;7.87;75.48;100475.03;5067552;28;20040;-28
2022/09/24 03:41:03;;;;;;;8.57;4.78;;;;;;;7.56;76.53;100468.22;5067419;28;20416;-26
2022/09/24 03:43:30;;;;;;;9.43;5.22;;;;;;;7.40;77.68;100485.25;5067581;28;20025;-27
2022/09/24 03:45:55;;;;;;;7.88;4.82;;;;;;;7.61;76.66;100492.38;5066784;28;20115;-28
2022/09/24 03:48:23;;;;;;;9.55;5.10;;;;;;;7.50;77.29;100483.09;5067240;28;20614;-26
2022/09/24 03:50:49;;;;;;;8.60;5.05;;;;;;;7.11;78.33;100486.94;5067423;28;20085;-28
2022/09/24 03:53:15;;;;;;;6.95;4.45;;;;;;;7.18;77.79;100476.41;5067285;28;20059;-26
2022/09/24 03:55:43;;;;;;;9.43;4.15;;;;;;;7.50;76.55;100496.38;5066836;28;20028;-25
2022/09/24 03:58:08;;;;;;;10.95;5.05;;;;;;;7.53;75.69;100484.53;5066787;28;20771;-27
2022/09/24 04:00:34;;;;;;;8.10;4.35;;;;;;;7.35;76.77;100504.34;5067050;28;20059;-27
2022/09/24 04:02:59;;;;;;;7.63;4.60;;;;;;;7.26;76.68;100507.31;5067015;28;20021;-28
2022/09/24 04:05:24;;;;;;;8.10;4.38;;;;;;;6.91;78.57;100501.78;5067200;28;20416;-27
2022/09/24 04:07:50;;;;;;;7.30;4.18;;;;;;;6.96;78.14;100502.03;5066895;28;20128;-26
2022/09/24 04:10:15;;;;;;;9.00;4.72;;;;;;;6.63;79.29;100489.16;5068791;28;20506;-25
2022/09/24 04:12:44;;;;;;;9.18;4.95;;;;;;;7.09;77.14;100504.88;5055553;28;20039;-27
2022/09/24 04:15:10;;;;;;;8.73;5.00;;;;;;;7.27;76.21;100507.13;5073821;28;20032;-26
2022/09/24 04:17:35;;;;;;;8.63;5.20;;;;;;;7.16;76.96;100532.28;5073818;28;20036;-26
2022/09/24 04:20:01;;;;;;;9.55;5.47;;;;;;;7.13;77.11;100532.69;5073498;28;20074;-25
2022/09/24 04:22:27;;;;;;;8.80;4.60;;;;;;;7.32;76.81;100531.28;5073631;28;20031;-28
2022/09/24 04:24:54;;;;;;;13.55;5.10;;;;;;;7.57;75.27;100547.69;5073541;28;20032;-30
2022/09/24 04:27:20;;;;;;;9.02;5.22;;;;;;;7.58;75.43;100524.59;5073158;28;20536;-29
2022/09/24 04:29:46;;;;;;;9.35;4.90;;;;;;;7.61;76.59;100550.78;5073176;28;20024;-27
2022/09/24 04:32:11;;;;;;;8.50;4.88;;;;;;;7.64;75.10;100535.31;5073744;28;20496;-27
2022/09/24 04:34:36;;;;;;;7.72;5.10;;;;;;;7.68;75.67;100529.63;5073345;28;20025;-26
2022/09/24 04:37:02;;;;;;;8.05;4.68;;;;;;;7.81;75.77;100557.13;5073575;28;20536;-26
2022/09/24 04:39:27;;;;;;;7.45;4.65;;;;;;;7.53;76.77;100543.75;5073230;28;20523;-28
2022/09/24 04:41:53;;;;;;;8.95;4.88;;;;;;;7.76;76.52;100556.84;5073045;28;20524;-26
2022/09/24 04:44:19;;;;;;;9.80;4.78;;;;;;;7.60;77.19;100549.97;5073365;28;20040;-26
2022/09/24 04:46:44;;;;;;;8.05;4.60;;;;;;;7.79;77.52;100561.00;5073431;28;20039;-27
2022/09/24 04:49:10;;;;;;;6.28;4.20;;;;;;;8.05;75.68;100563.09;5073338;28;20028;-27
2022/09/24 04:51:36;;;;;;;6.60;4.65;;;;;;;8.09;76.12;100560.84;5073251;28;20547;-27
2022/09/24 04:54:04;;;;;;;8.65;5.07;;;;;;;8.23;74.92;100557.31;5072998;28;20032;-25
2022/09/24 04:56:30;;;;;;;8.52;5.22;;;;;;;8.26;74.51;100554.28;5073162;28;20032;-26
2022/09/24 04:58:56;;;;;;;12.63;6.35;;;;;;;8.56;73.94;100570.91;5073780;28;20074;-27
2022/09/24 05:01:22;;;;;;;8.50;5.30;;;;;;;8.31;74.57;100557.16;5073186;28;20021;-27
2022/09/24 05:03:48;;;;;;;9.65;4.90;;;;;;;8.16;75.24;100554.59;5073167;28;20424;-27
2022/09/24 05:06:14;;;;;;;8.90;4.93;;;;;;;8.69;74.73;100567.53;5073219;28;20088;-25
2022/09/24 05:08:40;;;;;;;6.90;4.68;;;;;;;8.49;75.31;100558.56;5073204;28;20063;-26
2022/09/24 05:11:05;;;;;;;7.05;4.18;;;;;;;8.74;74.83;100562.44;5073099;28;20476;-27
2022/09/24 05:13:30;;;;;;;7.80;4.50;;;;;;;8.78;73.92;100563.69;5073272;28;20020;-27
2022/09/24 05:15:56;;;;;;;6.78;4.82;;;;;;;8.84;74.11;100551.44;5072859;28;20032;-27
2022/09/24 05:18:21;;;;;;;9.38;5.05;;;;;;;9.00;73.71;100566.28;5073084;28;20078;-27
2022/09/24 05:20:48;;;;;;;8.73;5.22;;;;;;;8.97;74.29;100561.34;5073137;28;20037;-26
2022/09/24 05:23:13;;;;;;;7.10;4.63;;;;;;;8.84;75.12;100552.25;5051342;28;20028;-26
2022/09/24 05:27:08;;;;;;;8.13;4.90;;;;;;;8.96;74.54;100570.34;5069697;28;20115;-26
2022/09/24 05:28:24;;;;;;;7.78;4.90;;;;;;;8.80;75.11;100520.94;5069421;28;20024;-28
2022/09/24 05:30:49;;;;;;;7.55;5.00;;;;;;;9.22;74.66;100553.72;5051793;28;20028;-27
2022/09/24 05:33:15;;;;;;;8.23;4.78;;;;;;;9.09;74.69;100554.44;5069441;28;20468;-31
2022/09/24 05:35:40;;;;;;;8.73;5.28;;;;;;;9.19;75.11;100554.94;5069784;28;20028;-26
2022/09/24 05:38:06;;;;;;;7.82;4.45;;;;;;;9.15;73.86;100558.16;5051459;28;20028;-28
2022/09/24 05:40:46;;;;;;;6.70;3.90;;;;;;;9.25;73.14;100554.13;5069783;28;20162;-27
2022/09/24 05:43:12;;;;;;;7.35;4.38;;;;;;;9.35;73.63;100563.59;5069557;28;20229;-25
2022/09/24 05:45:38;;;;;;;7.70;4.60;;;;;;;9.35;73.02;100552.94;5069695;28;20025;-26
2022/09/24 05:48:04;;;;;;;10.07;5.78;;;;;;;9.62;72.67;100578.66;5051275;28;20048;-29
2022/09/24 05:50:33;;;;;;;8.38;4.93;;;;;;;9.80;71.69;100578.06;5069177;28;20028;-25
2022/09/24 05:53:00;;;;;;;6.72;4.65;;;;;;;9.94;70.72;100568.25;5069096;28;20146;-26
2022/09/24 05:55:26;;;;;;;7.25;4.53;;;;;;;10.08;71.12;100584.28;5051203;28;20032;-27
2022/09/24 05:57:51;;;;;;;8.63;5.50;;;;;;;10.17;71.05;100583.06;5069198;28;20877;-28
2022/09/24 06:00:17;;;;;;;10.50;7.00;;;;;;;10.14;71.64;100586.13;5069131;28;20065;-27
2022/09/24 06:02:42;;;;;;;21.38;14.32;;;;;;;10.33;71.26;100581.88;5069215;28;20036;-25
2022/09/24 06:05:08;;;;;;;10.68;5.28;;;;;;;10.55;69.78;100601.16;5068689;28;20836;-27
2022/09/24 06:07:34;;;;;;;7.55;5.47;;;;;;;10.37;69.33;100573.25;5068922;28;20021;-27
2022/09/24 06:09:59;;;;;;;8.45;5.60;;;;;;;10.50;69.71;100571.63;5068714;28;20033;-28
2022/09/24 06:12:25;;;;;;;10.40;5.15;;;;;;;10.68;67.08;100595.81;5068989;28;20033;-28
2022/09/24 06:14:52;;;;;;;9.90;5.40;;;;;;;10.82;67.78;100594.78;5050854;28;20040;-30
2022/09/24 06:17:19;;;;;;;8.13;5.25;;;;;;;10.71;67.96;100570.59;5067828;28;20120;-26
2022/09/24 06:19:46;;;;;;;9.07;5.30;;;;;;;11.02;66.80;100580.59;5068574;28;20036;-29
2022/09/24 06:22:11;;;;;;;6.97;4.50;;;;;;;11.14;65.58;100583.44;5068641;28;20806;-27
2022/09/24 06:24:37;;;;;;;6.95;5.40;;;;;;;11.37;66.20;100588.28;5068571;28;20035;-26
2022/09/24 06:27:02;;;;;;;8.10;4.47;;;;;;;11.70;64.58;100588.13;5068649;28;20035;-28
2022/09/24 06:29:28;;;;;;;7.53;5.22;;;;;;;11.80;64.91;100590.34;5068601;28;20032;-26
2022/09/24 06:31:53;;;;;;;8.02;5.20;;;;;;;11.87;65.19;100588.47;5068417;28;20452;-26
2022/09/24 06:34:19;;;;;;;8.77;5.13;;;;;;;11.91;64.00;100576.34;5067283;28;20546;-25
2022/09/24 06:36:44;;;;;;;7.20;4.85;;;;;;;12.28;62.37;100589.88;5068330;28;20024;-29
2022/09/24 06:39:10;;;;;;;6.95;4.65;;;;;;;12.30;61.37;100574.44;5068457;28;20043;-27
2022/09/24 06:41:35;;;;;;;7.60;4.90;;;;;;;12.52;62.53;100574.03;5068337;28;20017;-27
2022/09/24 06:44:00;;;;;;;8.48;4.93;;;;;;;12.72;60.16;100573.84;5068395;28;20063;-26
2022/09/24 06:46:26;;;;;;;6.97;4.80;;;;;;;12.91;59.41;100606.81;5068313;28;20040;-25
2022/09/24 06:48:53;;;;;;;7.47;4.93;;;;;;;12.80;60.65;100586.97;5068002;28;20098;-27
2022/09/24 06:51:19;;;;;;;6.68;4.20;;;;;;;12.86;58.78;100592.25;5068037;28;20028;-27
2022/09/24 06:53:44;;;;;;;8.38;4.88;;;;;;;13.00;57.88;100609.00;5068328;28;20036;-27
2022/09/24 06:56:10;;;;;;;12.10;6.43;;;;;;;13.03;60.04;100602.38;5067805;28;20515;-27
2022/09/24 06:58:35;;;;;;;12.63;7.05;;;;;;;13.03;59.88;100600.50;5067875;28;20036;-26
2022/09/24 07:01:02;;;;;;;10.40;5.55;;;;;;;13.30;59.40;100586.03;5068018;28;20086;-26
2022/09/24 07:03:32;;;;;;;8.85;5.25;;;;;;;13.65;58.23;100600.47;5068282;28;20458;-29
2022/09/24 07:06:03;;;;;;;7.63;5.03;;;;;;;13.73;58.16;100590.44;5066512;28;20056;-27
2022/09/24 07:08:29;;;;;;;7.60;4.60;;;;;;;13.78;57.26;100604.81;5067503;28;20476;-27
2022/09/24 07:10:55;;;;;;;64.43;25.38;;;;;;;14.04;58.92;100608.19;5067309;28;20032;-28
2022/09/24 07:13:20;;;;;;;33.25;14.80;;;;;;;14.15;58.80;100603.91;5067655;28;20066;-28
2022/09/24 07:15:48;;;;;;;10.35;6.00;;;;;;;14.13;55.91;100584.53;5067440;28;20028;-25
2022/09/24 07:18:14;;;;;;;7.30;4.63;;;;;;;14.33;55.28;100590.41;5049301;28;20029;-26
2022/09/24 07:20:40;;;;;;;12.27;7.13;;;;;;;14.57;56.18;100611.97;5067538;28;20032;-27
2022/09/24 07:23:07;;;;;;;8.63;4.72;;;;;;;14.54;54.19;100607.00;5067388;28;20044;-29
2022/09/24 07:25:34;;;;;;;26.30;12.57;;;;;;;14.51;57.17;100613.66;5067497;28;20024;-26
2022/09/24 07:28:11;;;;;;;8.60;5.05;;;;;;;14.73;53.34;100592.47;5067057;28;20033;-27
2022/09/24 07:30:37;;;;;;;9.75;5.43;;;;;;;15.01;55.48;100598.97;5067109;28;20484;-28
2022/09/24 07:33:03;;;;;;;11.32;5.95;;;;;;;15.20;53.74;100611.25;5066800;28;20042;-28
2022/09/24 07:35:30;;;;;;;6.95;4.65;;;;;;;15.39;52.18;100605.72;5067297;28;20024;-27
2022/09/24 07:38:15;;;;;;;8.38;5.05;;;;;;;15.38;52.02;100602.19;5066977;28;20032;-26
2022/09/24 07:40:41;;;;;;;8.20;4.20;;;;;;;15.50;52.41;100602.16;5066555;28;20044;-31
2022/09/24 07:43:11;;;;;;;7.63;4.45;;;;;;;15.56;52.27;100576.19;5066931;28;20024;-26
2022/09/24 07:45:37;;;;;;;8.82;4.22;;;;;;;15.76;50.91;100595.44;5066707;28;20032;-30
2022/09/24 07:48:04;;;;;;;10.10;5.38;;;;;;;15.95;51.67;100577.22;5066890;28;20032;-26
2022/09/24 07:50:37;;;;;;;10.85;5.75;;;;;;;16.16;49.75;100588.34;5067039;28;20025;-26
2022/09/24 07:53:02;;;;;;;6.50;4.13;;;;;;;16.57;48.87;100587.16;5067100;28;20055;-28
2022/09/24 07:55:28;;;;;;;6.72;4.00;;;;;;;16.81;47.84;100582.38;5066912;28;20043;-27
2022/09/24 07:57:54;;;;;;;7.85;4.70;;;;;;;16.92;48.15;100577.16;5066367;28;20055;-27
2022/09/24 08:00:21;;;;;;;6.13;3.63;;;;;;;16.94;47.58;100591.19;5067431;28;20032;-27
2022/09/24 08:02:47;;;;;;;8.77;4.47;;;;;;;17.00;48.00;100585.63;5048400;28;20040;-28
2022/09/24 08:05:15;;;;;;;5.75;3.60;;;;;;;17.33;45.91;100588.50;5066477;28;20109;-26
2022/09/24 08:07:41;;;;;;;6.68;4.35;;;;;;;17.24;47.11;100582.69;5066801;28;20025;-27
2022/09/24 08:10:07;;;;;;;6.45;3.60;;;;;;;17.41;45.75;100596.94;5066351;28;20097;-27
2022/09/24 08:12:33;;;;;;;5.47;3.55;;;;;;;17.42;44.98;100568.09;5066561;28;20024;-25
2022/09/24 08:14:58;;;;;;;6.80;3.63;;;;;;;17.76;45.35;100579.53;5066618;28;20852;-28
2022/09/24 08:17:24;;;;;;;5.93;3.38;;;;;;;17.85;42.86;100559.13;5066915;28;20735;-27
2022/09/24 08:19:51;;;;;;;4.70;3.22;;;;;;;17.81;43.17;100563.38;5066445;28;20036;-28
2022/09/24 08:22:16;;;;;;;7.25;3.53;;;;;;;18.14;45.14;100558.03;5066585;28;20024;-28
2022/09/24 08:24:42;;;;;;;5.95;3.42;;;;;;;18.60;42.02;100569.22;5066634;28;20423;-29
2022/09/24 08:27:08;;;;;;;5.00;3.22;;;;;;;18.52;42.08;100556.19;5066386;28;20025;-27
2022/09/24 08:29:33;;;;;;;6.40;3.17;;;;;;;18.73;43.28;100568.75;5066622;28;20033;-28
2022/09/24 08:32:00;;;;;;;4.22;2.92;;;;;;;18.71;41.18;100570.88;5066239;28;20077;-27
2022/09/24 08:34:25;;;;;;;5.53;3.30;;;;;;;18.61;41.18;100571.66;5048520;28;20036;-27
2022/09/24 08:36:50;;;;;;;3.85;3.00;;;;;;;19.07;42.04;100574.63;5066525;28;20032;-27
2022/09/24 08:39:16;;;;;;;4.45;2.70;;;;;;;19.03;39.46;100548.41;5066583;28;20039;-26
2022/09/24 08:41:59;;;;;;;4.10;3.08;;;;;;;19.20;42.10;100550.91;5065933;28;20039;-26
2022/09/24 08:47:47;;;;;;;5.70;2.50;;;;;;;19.56;37.64;100569.97;5066558;28;20039;-26
2022/09/24 08:50:19;;;;;;;4.45;2.60;;;;;;;19.57;36.96;100550.75;5066303;28;20401;-28
2022/09/24 08:53:09;;;;;;;5.32;2.72;;;;;;;19.79;36.66;100552.44;5066204;28;20541;-27
2022/09/24 08:55:48;;;;;;;4.57;2.60;;;;;;;20.03;36.93;100564.38;5066125;28;20068;-27
2022/09/24 08:58:16;;;;;;;6.55;3.13;;;;;;;19.94;36.62;100566.03;5050284;28;20035;-27
2022/09/24 09:00:55;;;;;;;5.10;3.08;;;;;;;20.07;35.45;100560.06;5070025;28;20028;-28
2022/09/24 09:03:28;;;;;;;3.28;2.40;;;;;;;19.97;33.57;100560.06;5051656;28;20032;-28
2022/09/24 09:06:19;;;;;;;3.33;2.20;;;;;;;19.65;33.69;100561.03;5069426;28;20084;-26
2022/09/24 09:09:03;;;;;;;5.13;2.75;;;;;;;19.73;33.30;100540.00;5050056;28;20087;-27
2022/09/24 09:11:31;;;;;;;3.78;2.22;;;;;;;19.60;34.35;100550.22;5069837;28;20039;-28
2022/09/24 09:14:02;;;;;;;4.20;2.20;;;;;;;20.09;33.07;100556.28;5050296;28;20557;-27
2022/09/24 09:16:41;;;;;;;5.80;2.35;;;;;;;19.99;33.41;100540.84;5050392;28;20772;-27
2022/09/24 09:19:12;;;;;;;16.25;7.63;;;;;;;20.35;33.85;100538.94;5068429;28;20029;-32
2022/09/24 09:21:43;;;;;;;8.05;3.85;;;;;;;20.61;32.43;100552.47;5051025;28;20051;-28
2022/09/24 09:24:46;;;;;;;7.05;3.13;;;;;;;20.51;31.60;100552.47;5050559;28;20028;-30
2022/09/24 09:27:14;;;;;;;6.90;3.13;;;;;;;20.25;30.89;100533.53;5046280;28;20409;-28
2022/09/24 09:29:45;;;;;;;258.20;91.13;;;;;;;20.15;31.05;100520.81;5067181;28;20020;-30
2022/09/24 09:32:52;;;;;;;181.48;57.05;;;;;;;20.80;31.59;100536.44;5068422;28;20086;-30
2022/09/24 09:35:26;;;;;;;13.90;5.40;;;;;;;20.92;32.95;100528.78;4966494;28;20039;-28
2022/09/24 09:37:57;;;;;;;22.15;10.63;;;;;;;21.18;31.82;100534.13;4966448;28;20084;-30
2022/09/24 09:40:48;;;;;;;18.75;8.27;;;;;;;21.41;30.18;100524.50;5025018;28;20040;-29
2022/09/24 09:43:13;;;;;;;45.78;16.48;;;;;;;21.18;30.61;100505.09;5068566;28;20136;-27
2022/09/24 09:46:06;;;;;;;20.38;8.95;;;;;;;21.59;29.47;100523.88;5068179;28;20036;-27
2022/09/24 09:48:43;;;;;;;47.90;17.92;;;;;;;21.41;29.70;100510.94;5050282;28;20028;-30
2022/09/24 09:51:15;;;;;;;20.65;7.65;;;;;;;21.66;29.42;100524.41;5068330;28;20021;-28
2022/09/24 09:53:53;;;;;;;27.05;11.07;;;;;;;21.39;28.58;100518.56;5068150;28;20039;-28
2022/09/24 09:56:22;;;;;;;;;;;;;;;21.64;32.41;100514.94;5068695;28;20110;-29
2022/09/24 09:58:52;;;;;;;62.65;25.70;;;;;;;21.96;30.89;100506.25;5067346;28;20406;-28
2022/09/24 10:01:18;;;;;;;7.63;3.00;;;;;;;21.73;27.22;100499.66;5067088;28;20028;-32
2022/09/24 10:03:43;;;;;;;29.63;12.32;;;;;;;22.13;28.69;100511.28;5068417;28;20504;-33
2022/09/24 10:06:11;;;;;;;5.85;2.63;;;;;;;22.11;26.75;100512.66;5067652;28;20060;-29
2022/09/24 10:08:36;;;;;;;5.60;2.80;;;;;;;22.19;29.37;100506.59;5067474;28;20033;-29
2022/09/24 10:11:02;;;;;;;3.92;2.00;;;;;;;22.32;26.92;100514.13;5067770;28;20102;-28
2022/09/24 10:13:32;;;;;;;5.97;2.90;;;;;;;22.04;28.49;100502.91;5067641;28;20036;-31
2022/09/24 10:16:01;;;;;;;6.25;3.53;;;;;;;21.89;28.28;100496.81;5066718;28;20052;-31
2022/09/24 10:18:36;;;;;;;4.05;2.30;;;;;;;22.56;26.38;100507.91;5062826;28;20032;-28
2022/09/24 10:21:06;;;;;;;2.58;1.80;;;;;;;22.62;25.86;100498.63;5049172;28;20071;-29
2022/09/24 10:23:39;;;;;;;3.17;2.10;;;;;;;22.35;25.60;100497.25;5067505;28;20035;-28
2022/09/24 10:26:05;;;;;;;4.97;2.42;;;;;;;22.41;25.05;100496.13;5067880;28;20021;-30
2022/09/24 10:31:28;;;;;;;3.45;1.80;;;;;;;22.35;25.68;100472.81;5067614;28;20082;-30
2022/09/24 10:33:55;;;;;;;5.25;2.45;;;;;;;22.34;25.82;100479.31;5067093;28;20135;-28
2022/09/24 10:36:22;;;;;;;;;;;;;;;22.80;24.01;100495.13;5067165;28;20033;-29
2022/09/24 10:38:49;;;;;;;5.95;3.28;;;;;;;23.07;25.59;100469.25;5067620;28;19945;-29
2022/09/24 10:41:16;;;;;;;4.78;2.33;;;;;;;23.18;26.08;100491.69;5067401;28;20067;-27
2022/09/24 10:43:50;;;;;;;5.53;2.00;;;;;;;22.89;25.29;100464.59;5067287;28;20024;-29
2022/09/24 10:46:43;;;;;;;2.90;1.92;;;;;;;23.62;28.47;100476.88;5067208;28;20041;-27
2022/09/24 10:49:27;;;;;;;3.55;2.15;;;;;;;23.87;24.69;100478.44;5067306;28;20067;-28
2022/09/24 10:52:21;;;;;;;3.40;1.95;;;;;;;23.81;24.34;100472.25;5066795;28;20031;-28
2022/09/24 10:55:13;;;;;;;3.05;1.90;;;;;;;23.92;23.05;100478.34;5066822;28;20056;-29
2022/09/24 10:57:54;;;;;;;6.50;2.95;;;;;;;23.79;25.61;100460.84;5038169;28;20474;-31
2022/09/24 11:00:22;;;;;;;4.82;1.95;;;;;;;23.69;24.21;100455.53;5048815;28;20037;-27
2022/09/24 11:03:24;;;;;;;2.83;1.63;;;;;;;23.19;22.86;100466.91;5067037;28;20042;-29
2022/09/24 11:05:55;;;;;;;3.80;2.45;;;;;;;23.54;22.62;100448.44;5044946;28;20088;-29
2022/09/24 11:08:29;;;;;;;4.00;2.03;;;;;;;23.84;24.30;100452.63;5047148;28;20032;-30
2022/09/24 11:11:17;;;;;;;5.75;1.95;;;;;;;24.04;24.63;100454.16;5046328;28;20044;-27
2022/09/24 11:13:42;;;;;;;3.00;1.40;;;;;;;24.30;21.39;100456.44;5046463;28;20139;-31
2022/09/24 11:16:16;;;;;;;2.45;1.80;;;;;;;24.38;22.83;100449.47;5046688;28;20052;-28
2022/09/24 11:18:58;;;;;;;3.92;2.60;;;;;;;24.73;21.88;100447.19;5046791;28;20025;-27
2022/09/24 11:22:01;;;;;;;2.50;1.60;;;;;;;24.64;20.75;100458.78;5044651;28;20040;-28
2022/09/24 11:24:40;;;;;;;4.35;1.80;;;;;;;25.03;21.49;100459.38;5045242;28;20048;-30
2022/09/24 11:27:25;;;;;;;2.40;1.40;;;;;;;24.77;20.20;100454.44;5046479;28;20132;-30
2022/09/24 11:30:09;;;;;;;3.55;1.80;;;;;;;24.15;21.09;100446.63;5046387;28;20080;-27
2022/09/24 11:32:41;;;;;;;2.40;1.40;;;;;;;25.03;23.48;100446.53;5046389;28;20033;-27
2022/09/24 11:35:28;;;;;;;3.40;1.90;;;;;;;25.33;21.62;100440.69;5046320;28;20051;-29
2022/09/24 11:38:03;;;;;;;5.57;1.97;;;;;;;25.58;24.80;100428.34;5046573;28;20040;-28
2022/09/24 11:40:34;;;;;;;4.35;2.05;;;;;;;25.14;20.67;100429.91;5046340;28;20087;-26
2022/09/24 11:43:18;;;;;;;2.78;1.48;;;;;;;25.17;21.31;100430.13;5046196;28;20028;-27
2022/09/24 11:46:10;;;;;;;2.95;1.58;;;;;;;25.36;20.83;100410.06;5046159;28;20037;-27
2022/09/24 11:48:42;;;;;;;3.47;1.75;;;;;;;25.41;20.31;100418.91;5044618;28;20718;-26
2022/09/24 11:51:25;;;;;;;4.93;2.20;;;;;;;24.67;21.60;100419.19;5046106;28;20121;-28